sensor_id;sensor_type;location;lat;lon;timestamp;temperature;humidity
12156;DHT22;6141;49.092;8.516;2023-04-15T00:00:55;18.80;26.50
12156;DHT22;6141;49.092;8.516;2023-04-15T00:03:24;18.80;26.50
12156;DHT22;6141;49.092;8.516;2023-04-15T00:05:53;18.80;26.40
12156;DHT22;6141;49.092;8.516;2023-04-15T00:08:22;18.80;26.50
12156;DHT22;6141;49.092;8.516;2023-04-15T00:10:50;18.80;26.50
12156;DHT22;6141;49.092;8.516;2023-04-15T00:13:18;18.80;27.00
12156;DHT22;6141;49.092;8.516;2023-04-15T00:15:47;18.90;26.50
12156;DHT22;6141;49.092;8.516;2023-04-15T00:18:15;18.80;26.40
12156;DHT22;6141;49.092;8.516;2023-04-15T00:20:43;18.80;26.40
12156;DHT22;6141;49.092;8.516;2023-04-15T00:23:11;18.80;26.40
12156;DHT22;6141;49.092;8.516;2023-04-15T00:25:41;18.80;27.10
12156;DHT22;6141;49.092;8.516;2023-04-15T00:28:09;18.80;26.50
12156;DHT22;6141;49.092;8.516;2023-04-15T00:30:38;18.80;26.40
12156;DHT22;6141;49.092;8.516;2023-04-15T00:33:07;18.80;26.50
12156;DHT22;6141;49.092;8.516;2023-04-15T00:35:35;18.80;26.50
12156;DHT22;6141;49.092;8.516;2023-04-15T00:38:04;18.80;26.40
12156;DHT22;6141;49.092;8.516;2023-04-15T00:40:33;18.80;26.40
12156;DHT22;6141;49.092;8.516;2023-04-15T00:43:02;18.80;26.40
12156;DHT22;6141;49.092;8.516;2023-04-15T00:45:31;18.80;26.30
12156;DHT22;6141;49.092;8.516;2023-04-15T00:47:59;18.80;26.40
12156;DHT22;6141;49.092;8.516;2023-04-15T00:50:27;18.80;26.40
12156;DHT22;6141;49.092;8.516;2023-04-15T00:52:55;18.80;26.40
12156;DHT22;6141;49.092;8.516;2023-04-15T00:55:24;18.80;26.40
12156;DHT22;6141;49.092;8.516;2023-04-15T00:57:52;18.80;26.30
12156;DHT22;6141;49.092;8.516;2023-04-15T01:00:22;18.80;26.30
12156;DHT22;6141;49.092;8.516;2023-04-15T01:02:50;18.80;26.30
12156;DHT22;6141;49.092;8.516;2023-04-15T01:05:19;18.80;26.30
12156;DHT22;6141;49.092;8.516;2023-04-15T01:07:47;18.80;26.40
12156;DHT22;6141;49.092;8.516;2023-04-15T01:10:16;18.80;26.30
12156;DHT22;6141;49.092;8.516;2023-04-15T01:12:44;18.80;26.30
12156;DHT22;6141;49.092;8.516;2023-04-15T01:15:12;18.80;26.30
12156;DHT22;6141;49.092;8.516;2023-04-15T01:17:41;18.80;26.30
12156;DHT22;6141;49.092;8.516;2023-04-15T01:20:10;18.80;26.30
12156;DHT22;6141;49.092;8.516;2023-04-15T01:22:39;18.80;26.20
12156;DHT22;6141;49.092;8.516;2023-04-15T01:25:10;18.80;26.40
12156;DHT22;6141;49.092;8.516;2023-04-15T01:27:40;18.80;26.30
12156;DHT22;6141;49.092;8.516;2023-04-15T01:30:09;18.80;26.30
12156;DHT22;6141;49.092;8.516;2023-04-15T01:32:37;18.80;26.20
12156;DHT22;6141;49.092;8.516;2023-04-15T01:35:06;18.80;26.30
12156;DHT22;6141;49.092;8.516;2023-04-15T01:37:34;18.80;26.30
12156;DHT22;6141;49.092;8.516;2023-04-15T01:40:04;18.80;26.20
12156;DHT22;6141;49.092;8.516;2023-04-15T01:42:33;18.80;26.20
12156;DHT22;6141;49.092;8.516;2023-04-15T01:45:04;18.80;26.30
12156;DHT22;6141;49.092;8.516;2023-04-15T01:47:32;18.80;26.20
12156;DHT22;6141;49.092;8.516;2023-04-15T01:50:01;18.80;26.20
12156;DHT22;6141;49.092;8.516;2023-04-15T01:52:29;18.80;25.80
12156;DHT22;6141;49.092;8.516;2023-04-15T01:54:57;18.80;26.20
12156;DHT22;6141;49.092;8.516;2023-04-15T01:57:27;18.80;26.20
12156;DHT22;6141;49.092;8.516;2023-04-15T01:59:55;18.80;26.20
12156;DHT22;6141;49.092;8.516;2023-04-15T02:02:24;18.80;26.10
12156;DHT22;6141;49.092;8.516;2023-04-15T02:04:55;18.80;26.20
12156;DHT22;6141;49.092;8.516;2023-04-15T02:07:23;18.80;26.20
12156;DHT22;6141;49.092;8.516;2023-04-15T02:09:51;18.80;26.20
12156;DHT22;6141;49.092;8.516;2023-04-15T02:12:20;18.80;26.20
12156;DHT22;6141;49.092;8.516;2023-04-15T02:14:58;18.80;26.20
12156;DHT22;6141;49.092;8.516;2023-04-15T02:17:28;18.80;26.20
12156;DHT22;6141;49.092;8.516;2023-04-15T02:20:04;18.80;26.20
12156;DHT22;6141;49.092;8.516;2023-04-15T02:22:32;18.80;26.20
12156;DHT22;6141;49.092;8.516;2023-04-15T02:25:03;18.80;26.20
12156;DHT22;6141;49.092;8.516;2023-04-15T02:27:35;18.80;26.20
12156;DHT22;6141;49.092;8.516;2023-04-15T02:30:06;18.80;26.20
12156;DHT22;6141;49.092;8.516;2023-04-15T02:32:38;18.80;26.10
12156;DHT22;6141;49.092;8.516;2023-04-15T02:35:10;18.80;26.20
12156;DHT22;6141;49.092;8.516;2023-04-15T02:37:40;18.80;26.20
12156;DHT22;6141;49.092;8.516;2023-04-15T02:40:12;18.80;26.10
12156;DHT22;6141;49.092;8.516;2023-04-15T02:42:40;18.80;26.10
12156;DHT22;6141;49.092;8.516;2023-04-15T02:45:12;18.80;26.10
12156;DHT22;6141;49.092;8.516;2023-04-15T02:47:42;18.80;26.10
12156;DHT22;6141;49.092;8.516;2023-04-15T02:50:12;18.80;26.10
12156;DHT22;6141;49.092;8.516;2023-04-15T02:52:42;18.80;26.10
12156;DHT22;6141;49.092;8.516;2023-04-15T02:55:12;18.80;26.10
12156;DHT22;6141;49.092;8.516;2023-04-15T02:57:40;18.80;26.10
12156;DHT22;6141;49.092;8.516;2023-04-15T03:00:10;18.80;26.10
12156;DHT22;6141;49.092;8.516;2023-04-15T03:02:43;18.80;26.10
12156;DHT22;6141;49.092;8.516;2023-04-15T03:05:12;18.80;26.10
12156;DHT22;6141;49.092;8.516;2023-04-15T03:07:47;18.80;26.00
12156;DHT22;6141;49.092;8.516;2023-04-15T03:10:15;18.80;26.10
12156;DHT22;6141;49.092;8.516;2023-04-15T03:12:45;18.80;26.10
12156;DHT22;6141;49.092;8.516;2023-04-15T03:15:17;18.80;26.10
12156;DHT22;6141;49.092;8.516;2023-04-15T03:17:50;18.70;26.00
12156;DHT22;6141;49.092;8.516;2023-04-15T03:20:18;18.80;26.00
12156;DHT22;6141;49.092;8.516;2023-04-15T03:22:47;18.80;26.10
12156;DHT22;6141;49.092;8.516;2023-04-15T03:25:17;18.80;26.10
12156;DHT22;6141;49.092;8.516;2023-04-15T03:27:45;18.80;26.10
12156;DHT22;6141;49.092;8.516;2023-04-15T03:30:13;18.80;26.10
12156;DHT22;6141;49.092;8.516;2023-04-15T03:32:42;18.80;26.10
12156;DHT22;6141;49.092;8.516;2023-04-15T03:35:11;18.80;26.10
12156;DHT22;6141;49.092;8.516;2023-04-15T03:37:39;18.80;26.00
12156;DHT22;6141;49.092;8.516;2023-04-15T03:40:08;18.80;26.00
12156;DHT22;6141;49.092;8.516;2023-04-15T03:42:36;18.80;26.00
12156;DHT22;6141;49.092;8.516;2023-04-15T03:45:05;18.80;26.00
12156;DHT22;6141;49.092;8.516;2023-04-15T03:47:33;18.80;26.00
12156;DHT22;6141;49.092;8.516;2023-04-15T03:50:01;18.80;26.00
12156;DHT22;6141;49.092;8.516;2023-04-15T03:52:30;18.80;25.90
12156;DHT22;6141;49.092;8.516;2023-04-15T03:54:58;18.80;25.90
12156;DHT22;6141;49.092;8.516;2023-04-15T03:57:26;18.80;25.90
12156;DHT22;6141;49.092;8.516;2023-04-15T03:59:54;18.80;25.90
12156;DHT22;6141;49.092;8.516;2023-04-15T04:02:22;18.80;26.00
12156;DHT22;6141;49.092;8.516;2023-04-15T04:04:50;18.80;26.00
12156;DHT22;6141;49.092;8.516;2023-04-15T04:07:18;18.80;26.00
12156;DHT22;6141;49.092;8.516;2023-04-15T04:09:48;18.80;25.90
12156;DHT22;6141;49.092;8.516;2023-04-15T04:12:16;18.80;26.00
12156;DHT22;6141;49.092;8.516;2023-04-15T04:14:43;18.80;26.00
12156;DHT22;6141;49.092;8.516;2023-04-15T04:17:11;18.80;25.90
12156;DHT22;6141;49.092;8.516;2023-04-15T04:19:39;18.80;25.90
12156;DHT22;6141;49.092;8.516;2023-04-15T04:22:07;18.80;26.00
12156;DHT22;6141;49.092;8.516;2023-04-15T04:24:36;18.80;25.90
12156;DHT22;6141;49.092;8.516;2023-04-15T04:27:06;18.80;25.90
12156;DHT22;6141;49.092;8.516;2023-04-15T04:29:36;18.80;25.90
12156;DHT22;6141;49.092;8.516;2023-04-15T04:32:04;18.80;26.00
12156;DHT22;6141;49.092;8.516;2023-04-15T04:34:32;18.80;25.90
12156;DHT22;6141;49.092;8.516;2023-04-15T04:37:00;18.80;25.90
12156;DHT22;6141;49.092;8.516;2023-04-15T04:39:28;18.80;25.90
12156;DHT22;6141;49.092;8.516;2023-04-15T04:41:56;18.80;25.90
12156;DHT22;6141;49.092;8.516;2023-04-15T04:44:26;18.80;25.80
12156;DHT22;6141;49.092;8.516;2023-04-15T04:46:53;18.80;25.80
12156;DHT22;6141;49.092;8.516;2023-04-15T04:49:22;18.80;25.90
12156;DHT22;6141;49.092;8.516;2023-04-15T04:51:50;18.80;25.80
12156;DHT22;6141;49.092;8.516;2023-04-15T04:54:18;18.80;25.80
12156;DHT22;6141;49.092;8.516;2023-04-15T04:56:46;18.70;25.80
12156;DHT22;6141;49.092;8.516;2023-04-15T04:59:15;18.80;25.90
12156;DHT22;6141;49.092;8.516;2023-04-15T05:01:46;18.80;25.80
12156;DHT22;6141;49.092;8.516;2023-04-15T05:04:15;18.80;25.80
12156;DHT22;6141;49.092;8.516;2023-04-15T05:06:43;18.70;25.80
12156;DHT22;6141;49.092;8.516;2023-04-15T05:09:11;18.80;25.80
12156;DHT22;6141;49.092;8.516;2023-04-15T05:11:39;18.80;25.80
12156;DHT22;6141;49.092;8.516;2023-04-15T05:14:06;18.80;25.90
12156;DHT22;6141;49.092;8.516;2023-04-15T05:16:34;18.80;25.90
12156;DHT22;6141;49.092;8.516;2023-04-15T05:19:04;18.80;25.80
12156;DHT22;6141;49.092;8.516;2023-04-15T05:21:33;18.80;25.80
12156;DHT22;6141;49.092;8.516;2023-04-15T05:24:04;18.80;25.80
12156;DHT22;6141;49.092;8.516;2023-04-15T05:26:32;18.70;25.80
12156;DHT22;6141;49.092;8.516;2023-04-15T05:29:01;18.80;25.80
12156;DHT22;6141;49.092;8.516;2023-04-15T05:31:29;18.80;25.80
12156;DHT22;6141;49.092;8.516;2023-04-15T05:33:57;18.80;25.80
12156;DHT22;6141;49.092;8.516;2023-04-15T05:36:26;18.80;25.80
12156;DHT22;6141;49.092;8.516;2023-04-15T05:38:54;18.80;25.80
12156;DHT22;6141;49.092;8.516;2023-04-15T05:41:22;18.80;25.80
12156;DHT22;6141;49.092;8.516;2023-04-15T05:43:50;18.70;25.70
12156;DHT22;6141;49.092;8.516;2023-04-15T05:46:18;18.70;25.80
12156;DHT22;6141;49.092;8.516;2023-04-15T05:48:46;18.70;25.70
12156;DHT22;6141;49.092;8.516;2023-04-15T05:51:15;18.80;25.80
12156;DHT22;6141;49.092;8.516;2023-04-15T05:53:44;18.70;25.80
12156;DHT22;6141;49.092;8.516;2023-04-15T05:56:12;18.70;25.80
12156;DHT22;6141;49.092;8.516;2023-04-15T05:58:40;18.80;25.80
12156;DHT22;6141;49.092;8.516;2023-04-15T06:01:08;18.70;25.80
12156;DHT22;6141;49.092;8.516;2023-04-15T06:03:37;18.70;25.80
12156;DHT22;6141;49.092;8.516;2023-04-15T06:06:05;18.70;26.10
12156;DHT22;6141;49.092;8.516;2023-04-15T06:08:34;18.70;25.80
12156;DHT22;6141;49.092;8.516;2023-04-15T06:11:03;18.70;25.70
12156;DHT22;6141;49.092;8.516;2023-04-15T06:13:32;18.70;25.70
12156;DHT22;6141;49.092;8.516;2023-04-15T06:16:00;18.70;25.70
12156;DHT22;6141;49.092;8.516;2023-04-15T06:18:28;18.80;25.80
12156;DHT22;6141;49.092;8.516;2023-04-15T06:20:56;18.80;25.80
12156;DHT22;6141;49.092;8.516;2023-04-15T06:23:25;18.80;25.80
12156;DHT22;6141;49.092;8.516;2023-04-15T06:25:53;18.70;25.70
12156;DHT22;6141;49.092;8.516;2023-04-15T06:28:23;18.80;25.70
12156;DHT22;6141;49.092;8.516;2023-04-15T06:30:52;18.80;25.70
12156;DHT22;6141;49.092;8.516;2023-04-15T06:33:20;18.80;25.80
12156;DHT22;6141;49.092;8.516;2023-04-15T06:35:48;18.80;25.80
12156;DHT22;6141;49.092;8.516;2023-04-15T06:38:16;18.80;25.80
12156;DHT22;6141;49.092;8.516;2023-04-15T06:40:45;18.70;25.70
12156;DHT22;6141;49.092;8.516;2023-04-15T06:43:13;18.80;25.80
12156;DHT22;6141;49.092;8.516;2023-04-15T06:45:42;18.80;25.80
12156;DHT22;6141;49.092;8.516;2023-04-15T06:48:10;18.80;25.80
12156;DHT22;6141;49.092;8.516;2023-04-15T06:50:38;18.80;25.80
12156;DHT22;6141;49.092;8.516;2023-04-15T06:53:07;18.80;25.80
12156;DHT22;6141;49.092;8.516;2023-04-15T06:55:36;18.80;25.80
12156;DHT22;6141;49.092;8.516;2023-04-15T06:58:03;18.80;25.80
12156;DHT22;6141;49.092;8.516;2023-04-15T07:00:32;18.80;25.80
12156;DHT22;6141;49.092;8.516;2023-04-15T07:03:01;18.80;25.80
12156;DHT22;6141;49.092;8.516;2023-04-15T07:05:30;18.80;25.80
12156;DHT22;6141;49.092;8.516;2023-04-15T07:07:58;18.80;25.80
12156;DHT22;6141;49.092;8.516;2023-04-15T07:10:26;18.80;25.80
12156;DHT22;6141;49.092;8.516;2023-04-15T07:12:54;18.80;25.80
12156;DHT22;6141;49.092;8.516;2023-04-15T07:15:22;18.80;25.80
12156;DHT22;6141;49.092;8.516;2023-04-15T07:17:50;18.80;25.80
12156;DHT22;6141;49.092;8.516;2023-04-15T07:20:20;18.80;25.80
12156;DHT22;6141;49.092;8.516;2023-04-15T07:22:48;18.80;25.80
12156;DHT22;6141;49.092;8.516;2023-04-15T07:25:16;18.80;25.90
12156;DHT22;6141;49.092;8.516;2023-04-15T07:27:44;18.80;25.80
12156;DHT22;6141;49.092;8.516;2023-04-15T07:30:13;18.80;25.90
12156;DHT22;6141;49.092;8.516;2023-04-15T07:32:41;18.80;25.90
12156;DHT22;6141;49.092;8.516;2023-04-15T07:35:09;18.70;25.80
12156;DHT22;6141;49.092;8.516;2023-04-15T07:37:39;18.70;25.90
12156;DHT22;6141;49.092;8.516;2023-04-15T07:40:09;18.70;25.90
12156;DHT22;6141;49.092;8.516;2023-04-15T07:42:37;18.70;25.90
12156;DHT22;6141;49.092;8.516;2023-04-15T07:45:07;18.70;26.00
12156;DHT22;6141;49.092;8.516;2023-04-15T07:47:35;18.70;26.00
12156;DHT22;6141;49.092;8.516;2023-04-15T07:50:04;18.70;26.00
12156;DHT22;6141;49.092;8.516;2023-04-15T07:52:33;18.70;26.00
12156;DHT22;6141;49.092;8.516;2023-04-15T07:55:07;18.70;26.00
12156;DHT22;6141;49.092;8.516;2023-04-15T07:57:35;18.70;26.00
12156;DHT22;6141;49.092;8.516;2023-04-15T08:00:04;18.70;26.00
12156;DHT22;6141;49.092;8.516;2023-04-15T08:02:39;18.70;26.00
12156;DHT22;6141;49.092;8.516;2023-04-15T08:05:08;18.70;26.00
12156;DHT22;6141;49.092;8.516;2023-04-15T08:07:37;18.70;26.00
12156;DHT22;6141;49.092;8.516;2023-04-15T08:10:07;18.70;26.00
12156;DHT22;6141;49.092;8.516;2023-04-15T08:12:36;18.70;26.00
12156;DHT22;6141;49.092;8.516;2023-04-15T08:15:05;18.70;26.00
12156;DHT22;6141;49.092;8.516;2023-04-15T08:17:34;18.70;26.00
12156;DHT22;6141;49.092;8.516;2023-04-15T08:20:02;18.70;26.10
12156;DHT22;6141;49.092;8.516;2023-04-15T08:22:31;18.70;26.00
12156;DHT22;6141;49.092;8.516;2023-04-15T08:25:00;18.70;26.00
12156;DHT22;6141;49.092;8.516;2023-04-15T08:27:30;18.70;26.00
12156;DHT22;6141;49.092;8.516;2023-04-15T08:29:58;18.70;26.00
12156;DHT22;6141;49.092;8.516;2023-04-15T08:32:30;18.70;26.10
12156;DHT22;6141;49.092;8.516;2023-04-15T08:34:58;18.70;26.10
12156;DHT22;6141;49.092;8.516;2023-04-15T08:37:26;18.70;26.10
12156;DHT22;6141;49.092;8.516;2023-04-15T08:39:54;18.70;26.10
12156;DHT22;6141;49.092;8.516;2023-04-15T08:42:27;18.70;26.10
12156;DHT22;6141;49.092;8.516;2023-04-15T08:44:59;18.70;26.10
12156;DHT22;6141;49.092;8.516;2023-04-15T08:47:30;18.70;26.10
12156;DHT22;6141;49.092;8.516;2023-04-15T08:49:58;18.70;26.10
12156;DHT22;6141;49.092;8.516;2023-04-15T08:52:30;18.70;26.10
12156;DHT22;6141;49.092;8.516;2023-04-15T08:54:59;18.70;26.10
12156;DHT22;6141;49.092;8.516;2023-04-15T08:57:30;18.70;26.10
12156;DHT22;6141;49.092;8.516;2023-04-15T09:00:02;18.70;26.10
12156;DHT22;6141;49.092;8.516;2023-04-15T09:02:31;18.70;26.10
12156;DHT22;6141;49.092;8.516;2023-04-15T09:04:59;18.70;26.10
12156;DHT22;6141;49.092;8.516;2023-04-15T09:07:32;18.70;26.10
12156;DHT22;6141;49.092;8.516;2023-04-15T09:10:01;18.60;26.10
12156;DHT22;6141;49.092;8.516;2023-04-15T09:12:29;18.70;26.10
12156;DHT22;6141;49.092;8.516;2023-04-15T09:14:58;18.70;26.20
12156;DHT22;6141;49.092;8.516;2023-04-15T09:17:28;18.70;26.20
12156;DHT22;6141;49.092;8.516;2023-04-15T09:20:07;18.70;26.20
12156;DHT22;6141;49.092;8.516;2023-04-15T09:22:36;18.70;26.80
12156;DHT22;6141;49.092;8.516;2023-04-15T09:25:24;18.70;26.20
12156;DHT22;6141;49.092;8.516;2023-04-15T09:27:54;18.70;26.20
12156;DHT22;6141;49.092;8.516;2023-04-15T09:30:23;18.70;26.20
12156;DHT22;6141;49.092;8.516;2023-04-15T09:32:54;18.70;26.10
12156;DHT22;6141;49.092;8.516;2023-04-15T09:35:24;18.70;26.20
12156;DHT22;6141;49.092;8.516;2023-04-15T09:38:01;18.70;26.20
12156;DHT22;6141;49.092;8.516;2023-04-15T09:40:33;18.70;26.20
12156;DHT22;6141;49.092;8.516;2023-04-15T09:43:02;18.60;26.10
12156;DHT22;6141;49.092;8.516;2023-04-15T09:45:31;18.70;26.20
12156;DHT22;6141;49.092;8.516;2023-04-15T09:48:15;18.70;26.30
12156;DHT22;6141;49.092;8.516;2023-04-15T09:50:44;18.60;26.20
12156;DHT22;6141;49.092;8.516;2023-04-15T09:53:15;18.70;26.30
12156;DHT22;6141;49.092;8.516;2023-04-15T09:55:46;18.70;26.30
12156;DHT22;6141;49.092;8.516;2023-04-15T09:58:19;18.70;26.20
12156;DHT22;6141;49.092;8.516;2023-04-15T10:00:49;18.70;26.30
12156;DHT22;6141;49.092;8.516;2023-04-15T10:03:21;18.70;26.30
12156;DHT22;6141;49.092;8.516;2023-04-15T10:05:51;18.70;26.20
12156;DHT22;6141;49.092;8.516;2023-04-15T10:08:20;18.70;26.20
12156;DHT22;6141;49.092;8.516;2023-04-15T10:10:50;18.70;26.20
12156;DHT22;6141;49.092;8.516;2023-04-15T10:13:19;18.70;26.20
12156;DHT22;6141;49.092;8.516;2023-04-15T10:15:50;18.70;26.20
12156;DHT22;6141;49.092;8.516;2023-04-15T10:18:24;18.70;26.40
12156;DHT22;6141;49.092;8.516;2023-04-15T10:20:52;18.70;26.20
12156;DHT22;6141;49.092;8.516;2023-04-15T10:23:22;18.70;26.30
12156;DHT22;6141;49.092;8.516;2023-04-15T10:25:52;18.70;26.20
12156;DHT22;6141;49.092;8.516;2023-04-15T10:28:21;18.70;26.30
12156;DHT22;6141;49.092;8.516;2023-04-15T10:30:49;18.70;26.30
12156;DHT22;6141;49.092;8.516;2023-04-15T10:33:21;18.70;26.40
12156;DHT22;6141;49.092;8.516;2023-04-15T10:35:50;18.70;26.30
12156;DHT22;6141;49.092;8.516;2023-04-15T10:38:33;18.70;26.40
12156;DHT22;6141;49.092;8.516;2023-04-15T10:41:14;18.80;26.70
12156;DHT22;6141;49.092;8.516;2023-04-15T11:49:04;22.40;14.00
12156;DHT22;6141;49.092;8.516;2023-04-15T11:51:33;18.50;17.50
12156;DHT22;6141;49.092;8.516;2023-04-15T11:54:04;16.70;19.20
12156;DHT22;6141;49.092;8.516;2023-04-15T11:56:33;16.00;22.10
12156;DHT22;6141;49.092;8.516;2023-04-15T11:59:02;15.80;20.30
12156;DHT22;6141;49.092;8.516;2023-04-15T12:01:32;15.70;20.80
12156;DHT22;6141;49.092;8.516;2023-04-15T12:04:01;15.80;21.70
12156;DHT22;6141;49.092;8.516;2023-04-15T12:06:33;16.00;21.60
12156;DHT22;6141;49.092;8.516;2023-04-15T12:09:07;16.20;20.90
12156;DHT22;6141;49.092;8.516;2023-04-15T12:11:47;16.30;20.50
12156;DHT22;6141;49.092;8.516;2023-04-15T12:14:22;16.40;18.40
12156;DHT22;6141;49.092;8.516;2023-04-15T12:16:53;16.20;18.80
12156;DHT22;6141;49.092;8.516;2023-04-15T12:19:28;16.20;17.90
12156;DHT22;6141;49.092;8.516;2023-04-15T12:22:02;16.20;17.80
12156;DHT22;6141;49.092;8.516;2023-04-15T12:24:32;16.20;18.20
12156;DHT22;6141;49.092;8.516;2023-04-15T12:27:02;16.00;19.40
12156;DHT22;6141;49.092;8.516;2023-04-15T12:29:32;16.00;18.10
12156;DHT22;6141;49.092;8.516;2023-04-15T12:32:05;16.20;17.10
12156;DHT22;6141;49.092;8.516;2023-04-15T12:34:36;16.40;17.00
12156;DHT22;6141;49.092;8.516;2023-04-15T12:37:08;16.30;16.00
12156;DHT22;6141;49.092;8.516;2023-04-15T12:39:38;16.40;16.10
12156;DHT22;6141;49.092;8.516;2023-04-15T12:42:07;16.40;16.10
12156;DHT22;6141;49.092;8.516;2023-04-15T12:44:37;16.30;16.40
12156;DHT22;6141;49.092;8.516;2023-04-15T12:47:07;16.20;17.40
12156;DHT22;6141;49.092;8.516;2023-04-15T12:49:36;16.00;17.10
12156;DHT22;6141;49.092;8.516;2023-04-15T12:52:07;15.80;18.10
12156;DHT22;6141;49.092;8.516;2023-04-15T12:54:35;15.90;17.90
12156;DHT22;6141;49.092;8.516;2023-04-15T12:57:04;16.10;19.90
12156;DHT22;6141;49.092;8.516;2023-04-15T12:59:33;15.90;18.80
12156;DHT22;6141;49.092;8.516;2023-04-15T13:02:03;15.80;17.40
12156;DHT22;6141;49.092;8.516;2023-04-15T13:04:31;15.80;18.70
12156;DHT22;6141;49.092;8.516;2023-04-15T13:07:00;15.90;18.10
12156;DHT22;6141;49.092;8.516;2023-04-15T13:09:30;15.90;20.10
12156;DHT22;6141;49.092;8.516;2023-04-15T13:11:59;15.80;20.20
12156;DHT22;6141;49.092;8.516;2023-04-15T13:14:28;15.60;20.80
12156;DHT22;6141;49.092;8.516;2023-04-15T13:16:56;15.70;21.10
12156;DHT22;6141;49.092;8.516;2023-04-15T13:19:25;15.60;19.70
12156;DHT22;6141;49.092;8.516;2023-04-15T13:21:53;15.50;20.70
12156;DHT22;6141;49.092;8.516;2023-04-15T13:24:25;15.30;20.50
12156;DHT22;6141;49.092;8.516;2023-04-15T13:26:55;15.10;21.40
12156;DHT22;6141;49.092;8.516;2023-04-15T13:29:25;15.10;22.40
12156;DHT22;6141;49.092;8.516;2023-04-15T13:31:55;15.20;22.10
12156;DHT22;6141;49.092;8.516;2023-04-15T13:34:23;15.20;23.40
12156;DHT22;6141;49.092;8.516;2023-04-15T13:36:53;15.20;21.50
12156;DHT22;6141;49.092;8.516;2023-04-15T13:39:24;15.10;21.90
12156;DHT22;6141;49.092;8.516;2023-04-15T13:41:53;15.10;23.40
12156;DHT22;6141;49.092;8.516;2023-04-15T13:44:23;15.00;22.70
12156;DHT22;6141;49.092;8.516;2023-04-15T13:46:52;15.00;22.50
12156;DHT22;6141;49.092;8.516;2023-04-15T13:49:20;15.00;21.80
12156;DHT22;6141;49.092;8.516;2023-04-15T13:51:50;14.90;22.40
12156;DHT22;6141;49.092;8.516;2023-04-15T13:54:19;15.00;22.20
12156;DHT22;6141;49.092;8.516;2023-04-15T13:56:47;15.00;21.90
12156;DHT22;6141;49.092;8.516;2023-04-15T13:59:16;14.90;20.70
12156;DHT22;6141;49.092;8.516;2023-04-15T14:01:46;14.80;22.70
12156;DHT22;6141;49.092;8.516;2023-04-15T14:04:15;14.90;22.40
12156;DHT22;6141;49.092;8.516;2023-04-15T14:06:44;15.00;21.60
12156;DHT22;6141;49.092;8.516;2023-04-15T14:09:15;15.00;21.70
12156;DHT22;6141;49.092;8.516;2023-04-15T14:11:43;15.00;20.60
12156;DHT22;6141;49.092;8.516;2023-04-15T14:14:12;14.80;22.70
12156;DHT22;6141;49.092;8.516;2023-04-15T14:16:42;14.90;21.40
12156;DHT22;6141;49.092;8.516;2023-04-15T14:19:14;14.80;22.30
12156;DHT22;6141;49.092;8.516;2023-04-15T14:21:42;14.70;22.30
12156;DHT22;6141;49.092;8.516;2023-04-15T14:24:11;14.80;20.10
12156;DHT22;6141;49.092;8.516;2023-04-15T14:26:39;14.70;19.70
12156;DHT22;6141;49.092;8.516;2023-04-15T14:29:10;14.60;21.70
12156;DHT22;6141;49.092;8.516;2023-04-15T14:31:38;14.70;21.40
12156;DHT22;6141;49.092;8.516;2023-04-15T14:34:09;14.80;21.90
12156;DHT22;6141;49.092;8.516;2023-04-15T14:36:43;14.90;22.10
12156;DHT22;6141;49.092;8.516;2023-04-15T14:39:13;15.00;21.90
12156;DHT22;6141;49.092;8.516;2023-04-15T14:41:41;15.00;21.30
12156;DHT22;6141;49.092;8.516;2023-04-15T14:44:10;15.10;20.40
12156;DHT22;6141;49.092;8.516;2023-04-15T14:46:39;15.10;20.40
12156;DHT22;6141;49.092;8.516;2023-04-15T14:49:09;15.00;18.50
12156;DHT22;6141;49.092;8.516;2023-04-15T14:51:37;14.90;20.10
12156;DHT22;6141;49.092;8.516;2023-04-15T14:54:09;15.00;19.20
12156;DHT22;6141;49.092;8.516;2023-04-15T14:56:37;14.80;18.60
12156;DHT22;6141;49.092;8.516;2023-04-15T14:59:06;14.80;20.10
12156;DHT22;6141;49.092;8.516;2023-04-15T15:01:34;14.80;20.40
12156;DHT22;6141;49.092;8.516;2023-04-15T15:04:03;14.90;20.20
12156;DHT22;6141;49.092;8.516;2023-04-15T15:06:32;14.90;21.00
12156;DHT22;6141;49.092;8.516;2023-04-15T15:09:01;14.80;20.10
12156;DHT22;6141;49.092;8.516;2023-04-15T15:11:35;14.80;20.10
12156;DHT22;6141;49.092;8.516;2023-04-15T15:14:04;14.90;21.10
12156;DHT22;6141;49.092;8.516;2023-04-15T15:16:32;15.00;21.20
12156;DHT22;6141;49.092;8.516;2023-04-15T15:19:03;15.00;21.20
12156;DHT22;6141;49.092;8.516;2023-04-15T15:21:32;15.00;21.30
12156;DHT22;6141;49.092;8.516;2023-04-15T15:24:00;15.00;20.30
12156;DHT22;6141;49.092;8.516;2023-04-15T15:26:29;15.00;20.60
12156;DHT22;6141;49.092;8.516;2023-04-15T15:28:59;14.90;21.50
12156;DHT22;6141;49.092;8.516;2023-04-15T15:31:29;14.80;22.00
12156;DHT22;6141;49.092;8.516;2023-04-15T15:33:58;14.50;23.00
12156;DHT22;6141;49.092;8.516;2023-04-15T15:36:27;14.30;25.00
12156;DHT22;6141;49.092;8.516;2023-04-15T15:38:57;14.20;24.80
12156;DHT22;6141;49.092;8.516;2023-04-15T15:41:31;14.20;25.50
12156;DHT22;6141;49.092;8.516;2023-04-15T15:44:01;14.20;26.50
12156;DHT22;6141;49.092;8.516;2023-04-15T15:46:29;14.10;27.70
12156;DHT22;6141;49.092;8.516;2023-04-15T15:48:58;13.90;29.20
12156;DHT22;6141;49.092;8.516;2023-04-15T15:51:27;13.90;30.00
12156;DHT22;6141;49.092;8.516;2023-04-15T15:53:55;13.80;30.50
12156;DHT22;6141;49.092;8.516;2023-04-15T15:56:24;13.80;30.70
12156;DHT22;6141;49.092;8.516;2023-04-15T15:58:53;13.70;31.70
12156;DHT22;6141;49.092;8.516;2023-04-15T16:01:23;13.60;32.30
12156;DHT22;6141;49.092;8.516;2023-04-15T16:03:52;13.60;33.40
12156;DHT22;6141;49.092;8.516;2023-04-15T16:06:22;13.50;33.80
12156;DHT22;6141;49.092;8.516;2023-04-15T16:08:51;13.50;33.80
12156;DHT22;6141;49.092;8.516;2023-04-15T16:11:19;13.70;33.70
12156;DHT22;6141;49.092;8.516;2023-04-15T16:13:48;13.50;34.40
12156;DHT22;6141;49.092;8.516;2023-04-15T16:16:16;13.50;35.10
12156;DHT22;6141;49.092;8.516;2023-04-15T16:18:47;13.50;35.50
12156;DHT22;6141;49.092;8.516;2023-04-15T16:21:15;13.50;37.40
12156;DHT22;6141;49.092;8.516;2023-04-15T16:23:44;13.50;38.90
12156;DHT22;6141;49.092;8.516;2023-04-15T16:26:13;13.70;38.90
12156;DHT22;6141;49.092;8.516;2023-04-15T16:28:42;13.60;38.80
12156;DHT22;6141;49.092;8.516;2023-04-15T16:31:12;13.50;40.50
12156;DHT22;6141;49.092;8.516;2023-04-15T16:33:41;13.40;41.90
12156;DHT22;6141;49.092;8.516;2023-04-15T16:36:11;13.50;43.10
12156;DHT22;6141;49.092;8.516;2023-04-15T16:38:40;13.40;45.20
12156;DHT22;6141;49.092;8.516;2023-04-15T16:41:11;13.50;45.40
12156;DHT22;6141;49.092;8.516;2023-04-15T16:43:39;13.50;46.40
12156;DHT22;6141;49.092;8.516;2023-04-15T16:46:09;13.60;48.30
12156;DHT22;6141;49.092;8.516;2023-04-15T16:48:38;13.50;48.20
12156;DHT22;6141;49.092;8.516;2023-04-15T16:51:07;13.40;48.40
12156;DHT22;6141;49.092;8.516;2023-04-15T16:53:39;13.30;48.00
12156;DHT22;6141;49.092;8.516;2023-04-15T16:56:08;13.20;48.50
12156;DHT22;6141;49.092;8.516;2023-04-15T16:58:37;13.10;49.80
12156;DHT22;6141;49.092;8.516;2023-04-15T17:01:05;12.90;50.00
12156;DHT22;6141;49.092;8.516;2023-04-15T17:03:34;12.80;51.50